sensor_id;sensor_type;location;lat;lon;timestamp;P1;durP1;ratioP1;P2;durP2;ratioP2
22652;SDS011;11493;43.344;26.226;2022-07-11T00:02:15;7.68;;;6.90;;
22652;SDS011;11493;43.344;26.226;2022-07-11T00:04:43;7.00;;;6.40;;
22652;SDS011;11493;43.344;26.226;2022-07-11T00:07:12;15.00;;;7.00;;
22652;SDS011;11493;43.344;26.226;2022-07-11T00:09:40;13.00;;;6.63;;
22652;SDS011;11493;43.344;26.226;2022-07-11T00:12:07;8.88;;;7.00;;
22652;SDS011;11493;43.344;26.226;2022-07-11T00:14:36;9.10;;;7.07;;
22652;SDS011;11493;43.344;26.226;2022-07-11T00:17:06;9.65;;;7.53;;
22652;SDS011;11493;43.344;26.226;2022-07-11T00:19:37;12.95;;;7.03;;
22652;SDS011;11493;43.344;26.226;2022-07-11T00:22:05;12.02;;;6.88;;
22652;SDS011;11493;43.344;26.226;2022-07-11T00:24:33;9.07;;;6.38;;
22652;SDS011;11493;43.344;26.226;2022-07-11T00:27:00;7.43;;;6.82;;
22652;SDS011;11493;43.344;26.226;2022-07-11T00:29:28;7.88;;;7.15;;
22652;SDS011;11493;43.344;26.226;2022-07-11T00:31:56;8.57;;;6.57;;
22652;SDS011;11493;43.344;26.226;2022-07-11T00:34:24;6.95;;;6.40;;
22652;SDS011;11493;43.344;26.226;2022-07-11T00:36:52;8.65;;;7.05;;
22652;SDS011;11493;43.344;26.226;2022-07-11T00:39:20;9.57;;;6.57;;
22652;SDS011;11493;43.344;26.226;2022-07-11T00:41:47;7.38;;;6.78;;
22652;SDS011;11493;43.344;26.226;2022-07-11T00:44:14;8.55;;;7.63;;
22652;SDS011;11493;43.344;26.226;2022-07-11T00:46:42;11.20;;;7.60;;
22652;SDS011;11493;43.344;26.226;2022-07-11T00:49:09;7.40;;;6.75;;
22652;SDS011;11493;43.344;26.226;2022-07-11T00:51:37;7.32;;;6.60;;
22652;SDS011;11493;43.344;26.226;2022-07-11T00:54:05;16.63;;;7.07;;
22652;SDS011;11493;43.344;26.226;2022-07-11T00:56:34;6.97;;;6.22;;
22652;SDS011;11493;43.344;26.226;2022-07-11T00:59:02;7.93;;;6.35;;
22652;SDS011;11493;43.344;26.226;2022-07-11T01:01:29;5.85;;;5.45;;
22652;SDS011;11493;43.344;26.226;2022-07-11T01:04:01;8.20;;;6.37;;
22652;SDS011;11493;43.344;26.226;2022-07-11T01:06:29;6.97;;;5.60;;
22652;SDS011;11493;43.344;26.226;2022-07-11T01:08:56;14.32;;;6.53;;
22652;SDS011;11493;43.344;26.226;2022-07-11T01:11:24;7.20;;;5.80;;
22652;SDS011;11493;43.344;26.226;2022-07-11T01:13:53;11.02;;;6.40;;
22652;SDS011;11493;43.344;26.226;2022-07-11T01:16:21;7.53;;;6.25;;
22652;SDS011;11493;43.344;26.226;2022-07-11T01:18:53;9.38;;;6.72;;
22652;SDS011;11493;43.344;26.226;2022-07-11T01:21:22;10.98;;;6.75;;
22652;SDS011;11493;43.344;26.226;2022-07-11T01:23:51;9.07;;;6.47;;
22652;SDS011;11493;43.344;26.226;2022-07-11T01:26:21;8.95;;;6.43;;
22652;SDS011;11493;43.344;26.226;2022-07-11T01:28:49;12.18;;;6.32;;
22652;SDS011;11493;43.344;26.226;2022-07-11T01:31:19;8.10;;;6.43;;
22652;SDS011;11493;43.344;26.226;2022-07-11T01:33:47;6.03;;;5.43;;
22652;SDS011;11493;43.344;26.226;2022-07-11T01:36:14;11.82;;;6.05;;
22652;SDS011;11493;43.344;26.226;2022-07-11T01:38:41;13.07;;;6.95;;
22652;SDS011;11493;43.344;26.226;2022-07-11T01:41:08;7.00;;;4.72;;
22652;SDS011;11493;43.344;26.226;2022-07-11T01:43:36;10.30;;;5.93;;
22652;SDS011;11493;43.344;26.226;2022-07-11T01:46:04;7.53;;;5.15;;
22652;SDS011;11493;43.344;26.226;2022-07-11T01:48:31;6.38;;;4.88;;
22652;SDS011;11493;43.344;26.226;2022-07-11T01:50:59;6.47;;;4.60;;
22652;SDS011;11493;43.344;26.226;2022-07-11T01:53:26;5.07;;;4.68;;
22652;SDS011;11493;43.344;26.226;2022-07-11T01:55:54;8.73;;;5.00;;
22652;SDS011;11493;43.344;26.226;2022-07-11T01:58:41;8.80;;;4.80;;
22652;SDS011;11493;43.344;26.226;2022-07-11T02:01:09;5.53;;;4.93;;
22652;SDS011;11493;43.344;26.226;2022-07-11T02:03:36;7.35;;;4.82;;
22652;SDS011;11493;43.344;26.226;2022-07-11T02:06:05;4.13;;;3.75;;
22652;SDS011;11493;43.344;26.226;2022-07-11T02:08:33;6.18;;;4.13;;
22652;SDS011;11493;43.344;26.226;2022-07-11T02:11:00;3.30;;;3.10;;
22652;SDS011;11493;43.344;26.226;2022-07-11T02:13:27;5.60;;;4.35;;
22652;SDS011;11493;43.344;26.226;2022-07-11T02:16:15;5.95;;;4.55;;
22652;SDS011;11493;43.344;26.226;2022-07-11T02:18:42;6.78;;;4.32;;
22652;SDS011;11493;43.344;26.226;2022-07-11T02:21:10;4.63;;;4.22;;
22652;SDS011;11493;43.344;26.226;2022-07-11T02:23:39;7.55;;;4.90;;
22652;SDS011;11493;43.344;26.226;2022-07-11T02:26:07;4.32;;;3.92;;
22652;SDS011;11493;43.344;26.226;2022-07-11T02:28:34;8.95;;;4.28;;
22652;SDS011;11493;43.344;26.226;2022-07-11T02:31:03;4.88;;;4.07;;
22652;SDS011;11493;43.344;26.226;2022-07-11T02:33:30;9.18;;;5.25;;
22652;SDS011;11493;43.344;26.226;2022-07-11T02:35:58;6.20;;;4.20;;
22652;SDS011;11493;43.344;26.226;2022-07-11T02:38:26;4.45;;;4.15;;
22652;SDS011;11493;43.344;26.226;2022-07-11T02:40:53;7.45;;;4.43;;
22652;SDS011;11493;43.344;26.226;2022-07-11T02:43:21;4.63;;;4.15;;
22652;SDS011;11493;43.344;26.226;2022-07-11T02:45:48;7.13;;;4.60;;
22652;SDS011;11493;43.344;26.226;2022-07-11T02:48:16;5.32;;;4.22;;
22652;SDS011;11493;43.344;26.226;2022-07-11T02:50:43;9.07;;;4.50;;
22652;SDS011;11493;43.344;26.226;2022-07-11T02:53:11;4.97;;;4.55;;
22652;SDS011;11493;43.344;26.226;2022-07-11T02:55:38;8.95;;;4.68;;
22652;SDS011;11493;43.344;26.226;2022-07-11T02:58:05;7.20;;;4.70;;
22652;SDS011;11493;43.344;26.226;2022-07-11T03:00:33;6.40;;;4.47;;
22652;SDS011;11493;43.344;26.226;2022-07-11T03:03:00;4.97;;;4.53;;
22652;SDS011;11493;43.344;26.226;2022-07-11T03:05:28;6.03;;;4.95;;
22652;SDS011;11493;43.344;26.226;2022-07-11T03:07:56;5.57;;;4.43;;
22652;SDS011;11493;43.344;26.226;2022-07-11T03:10:23;4.70;;;4.30;;
22652;SDS011;11493;43.344;26.226;2022-07-11T03:12:51;8.93;;;4.18;;
22652;SDS011;11493;43.344;26.226;2022-07-11T03:15:19;6.07;;;3.80;;
22652;SDS011;11493;43.344;26.226;2022-07-11T03:17:47;4.60;;;4.03;;
22652;SDS011;11493;43.344;26.226;2022-07-11T03:20:15;6.55;;;4.20;;
22652;SDS011;11493;43.344;26.226;2022-07-11T03:22:42;6.93;;;4.65;;
22652;SDS011;11493;43.344;26.226;2022-07-11T03:25:10;6.63;;;4.13;;
22652;SDS011;11493;43.344;26.226;2022-07-11T03:27:37;8.13;;;4.68;;
22652;SDS011;11493;43.344;26.226;2022-07-11T03:30:04;9.68;;;4.07;;
22652;SDS011;11493;43.344;26.226;2022-07-11T03:32:32;5.10;;;4.40;;
22652;SDS011;11493;43.344;26.226;2022-07-11T03:35:00;5.80;;;4.53;;
22652;SDS011;11493;43.344;26.226;2022-07-11T03:37:45;7.00;;;4.78;;
22652;SDS011;11493;43.344;26.226;2022-07-11T03:40:13;15.80;;;4.80;;
22652;SDS011;11493;43.344;26.226;2022-07-11T03:42:40;6.57;;;5.13;;
22652;SDS011;11493;43.344;26.226;2022-07-11T03:45:07;5.93;;;3.72;;
22652;SDS011;11493;43.344;26.226;2022-07-11T03:47:35;7.70;;;4.10;;
22652;SDS011;11493;43.344;26.226;2022-07-11T03:50:03;4.18;;;3.72;;
22652;SDS011;11493;43.344;26.226;2022-07-11T03:52:31;3.92;;;3.42;;
22652;SDS011;11493;43.344;26.226;2022-07-11T03:54:59;5.18;;;3.13;;
22652;SDS011;11493;43.344;26.226;2022-07-11T03:57:26;5.70;;;3.33;;
22652;SDS011;11493;43.344;26.226;2022-07-11T03:59:54;4.35;;;3.10;;
22652;SDS011;11493;43.344;26.226;2022-07-11T04:02:21;6.75;;;2.92;;
22652;SDS011;11493;43.344;26.226;2022-07-11T04:04:49;4.80;;;3.25;;
22652;SDS011;11493;43.344;26.226;2022-07-11T04:07:16;4.68;;;3.55;;
22652;SDS011;11493;43.344;26.226;2022-07-11T04:09:43;8.60;;;3.30;;
22652;SDS011;11493;43.344;26.226;2022-07-11T04:12:11;3.63;;;2.83;;
22652;SDS011;11493;43.344;26.226;2022-07-11T04:14:38;3.85;;;3.25;;
22652;SDS011;11493;43.344;26.226;2022-07-11T04:17:06;6.63;;;3.13;;
22652;SDS011;11493;43.344;26.226;2022-07-11T04:19:33;3.20;;;3.00;;
22652;SDS011;11493;43.344;26.226;2022-07-11T04:22:00;3.50;;;2.85;;
22652;SDS011;11493;43.344;26.226;2022-07-11T04:24:28;4.55;;;2.67;;
22652;SDS011;11493;43.344;26.226;2022-07-11T04:26:55;4.20;;;2.60;;
22652;SDS011;11493;43.344;26.226;2022-07-11T04:29:23;3.10;;;2.70;;
22652;SDS011;11493;43.344;26.226;2022-07-11T04:31:50;3.50;;;2.50;;
22652;SDS011;11493;43.344;26.226;2022-07-11T04:34:18;4.70;;;2.72;;
22652;SDS011;11493;43.344;26.226;2022-07-11T04:36:46;3.15;;;2.67;;
22652;SDS011;11493;43.344;26.226;2022-07-11T04:39:13;3.55;;;2.47;;
22652;SDS011;11493;43.344;26.226;2022-07-11T04:41:41;2.88;;;2.30;;
22652;SDS011;11493;43.344;26.226;2022-07-11T04:44:08;2.38;;;2.17;;
22652;SDS011;11493;43.344;26.226;2022-07-11T04:46:35;6.97;;;2.72;;
22652;SDS011;11493;43.344;26.226;2022-07-11T04:51:56;4.72;;;2.60;;
22652;SDS011;11493;43.344;26.226;2022-07-11T04:54:28;3.00;;;2.30;;
22652;SDS011;11493;43.344;26.226;2022-07-11T04:56:56;3.67;;;2.08;;
22652;SDS011;11493;43.344;26.226;2022-07-11T04:59:23;2.25;;;2.00;;
22652;SDS011;11493;43.344;26.226;2022-07-11T05:01:51;3.03;;;2.30;;
22652;SDS011;11493;43.344;26.226;2022-07-11T05:04:18;2.70;;;2.47;;
22652;SDS011;11493;43.344;26.226;2022-07-11T05:06:46;3.17;;;2.13;;
22652;SDS011;11493;43.344;26.226;2022-07-11T05:09:13;2.35;;;2.10;;
22652;SDS011;11493;43.344;26.226;2022-07-11T05:11:40;5.60;;;2.00;;
22652;SDS011;11493;43.344;26.226;2022-07-11T05:14:07;5.65;;;2.20;;
22652;SDS011;11493;43.344;26.226;2022-07-11T05:16:35;3.72;;;1.70;;
22652;SDS011;11493;43.344;26.226;2022-07-11T05:19:02;4.13;;;1.70;;
22652;SDS011;11493;43.344;26.226;2022-07-11T05:21:29;3.60;;;1.65;;
22652;SDS011;11493;43.344;26.226;2022-07-11T05:23:58;5.88;;;1.92;;
22652;SDS011;11493;43.344;26.226;2022-07-11T05:26:25;9.65;;;2.03;;
22652;SDS011;11493;43.344;26.226;2022-07-11T05:28:52;7.07;;;1.60;;
22652;SDS011;11493;43.344;26.226;2022-07-11T05:31:20;2.03;;;1.60;;
22652;SDS011;11493;43.344;26.226;2022-07-11T05:33:47;4.35;;;2.05;;
22652;SDS011;11493;43.344;26.226;2022-07-11T05:36:15;2.35;;;1.67;;
22652;SDS011;11493;43.344;26.226;2022-07-11T05:38:42;3.63;;;1.55;;
22652;SDS011;11493;43.344;26.226;2022-07-11T05:41:09;4.82;;;1.63;;
22652;SDS011;11493;43.344;26.226;2022-07-11T05:43:37;2.13;;;1.83;;
22652;SDS011;11493;43.344;26.226;2022-07-11T05:46:05;2.95;;;1.70;;
22652;SDS011;11493;43.344;26.226;2022-07-11T05:48:32;2.22;;;1.83;;
22652;SDS011;11493;43.344;26.226;2022-07-11T05:51:00;4.65;;;1.55;;
22652;SDS011;11493;43.344;26.226;2022-07-11T05:53:27;2.47;;;1.55;;
22652;SDS011;11493;43.344;26.226;2022-07-11T05:55:54;1.83;;;1.52;;
22652;SDS011;11493;43.344;26.226;2022-07-11T05:58:21;5.18;;;1.67;;
22652;SDS011;11493;43.344;26.226;2022-07-11T06:00:48;1.55;;;1.40;;
22652;SDS011;11493;43.344;26.226;2022-07-11T06:03:15;1.73;;;1.40;;
22652;SDS011;11493;43.344;26.226;2022-07-11T06:05:43;1.55;;;1.27;;
22652;SDS011;11493;43.344;26.226;2022-07-11T06:08:10;1.70;;;1.50;;
22652;SDS011;11493;43.344;26.226;2022-07-11T06:10:56;3.05;;;1.67;;
22652;SDS011;11493;43.344;26.226;2022-07-11T06:13:23;2.03;;;1.60;;
22652;SDS011;11493;43.344;26.226;2022-07-11T06:15:52;1.40;;;1.23;;
22652;SDS011;11493;43.344;26.226;2022-07-11T06:18:19;2.50;;;1.45;;
22652;SDS011;11493;43.344;26.226;2022-07-11T06:20:47;4.57;;;1.27;;
22652;SDS011;11493;43.344;26.226;2022-07-11T06:23:15;7.47;;;1.67;;
22652;SDS011;11493;43.344;26.226;2022-07-11T06:25:42;2.80;;;1.30;;
22652;SDS011;11493;43.344;26.226;2022-07-11T06:28:09;3.40;;;1.10;;
22652;SDS011;11493;43.344;26.226;2022-07-11T06:30:36;2.17;;;1.20;;
22652;SDS011;11493;43.344;26.226;2022-07-11T06:33:04;2.00;;;1.20;;
22652;SDS011;11493;43.344;26.226;2022-07-11T06:35:31;1.10;;;0.98;;
22652;SDS011;11493;43.344;26.226;2022-07-11T06:37:58;2.40;;;1.10;;
22652;SDS011;11493;43.344;26.226;2022-07-11T06:40:26;1.23;;;1.10;;
22652;SDS011;11493;43.344;26.226;2022-07-11T06:42:54;3.00;;;1.17;;
22652;SDS011;11493;43.344;26.226;2022-07-11T06:45:23;4.75;;;1.15;;
22652;SDS011;11493;43.344;26.226;2022-07-11T06:47:50;3.08;;;1.23;;
22652;SDS011;11493;43.344;26.226;2022-07-11T06:50:19;1.42;;;1.00;;
22652;SDS011;11493;43.344;26.226;2022-07-11T06:52:46;1.33;;;1.00;;
22652;SDS011;11493;43.344;26.226;2022-07-11T06:55:14;3.65;;;1.67;;
22652;SDS011;11493;43.344;26.226;2022-07-11T06:57:41;2.85;;;1.13;;
22652;SDS011;11493;43.344;26.226;2022-07-11T07:00:29;2.80;;;1.10;;
22652;SDS011;11493;43.344;26.226;2022-07-11T07:02:56;4.25;;;1.10;;
22652;SDS011;11493;43.344;26.226;2022-07-11T07:05:24;1.40;;;0.88;;
22652;SDS011;11493;43.344;26.226;2022-07-11T07:07:51;1.20;;;1.08;;
22652;SDS011;11493;43.344;26.226;2022-07-11T07:10:19;4.03;;;0.90;;
22652;SDS011;11493;43.344;26.226;2022-07-11T07:12:46;2.30;;;1.00;;
22652;SDS011;11493;43.344;26.226;2022-07-11T07:15:13;1.00;;;0.93;;
22652;SDS011;11493;43.344;26.226;2022-07-11T07:17:41;2.30;;;1.00;;
22652;SDS011;11493;43.344;26.226;2022-07-11T07:20:08;1.67;;;1.10;;
22652;SDS011;11493;43.344;26.226;2022-07-11T07:22:37;1.27;;;0.98;;
22652;SDS011;11493;43.344;26.226;2022-07-11T07:25:05;1.20;;;0.95;;
22652;SDS011;11493;43.344;26.226;2022-07-11T07:27:34;1.67;;;1.00;;
22652;SDS011;11493;43.344;26.226;2022-07-11T07:30:01;1.15;;;1.05;;
22652;SDS011;11493;43.344;26.226;2022-07-11T07:32:29;2.08;;;1.00;;
22652;SDS011;11493;43.344;26.226;2022-07-11T07:34:57;4.38;;;0.98;;
22652;SDS011;11493;43.344;26.226;2022-07-11T07:37:25;1.05;;;0.95;;
22652;SDS011;11493;43.344;26.226;2022-07-11T07:39:53;1.40;;;1.13;;
22652;SDS011;11493;43.344;26.226;2022-07-11T07:42:20;2.75;;;1.10;;
22652;SDS011;11493;43.344;26.226;2022-07-11T07:44:48;2.92;;;1.10;;
22652;SDS011;11493;43.344;26.226;2022-07-11T07:47:16;1.20;;;1.10;;
22652;SDS011;11493;43.344;26.226;2022-07-11T07:49:43;2.00;;;1.40;;
22652;SDS011;11493;43.344;26.226;2022-07-11T07:52:10;1.52;;;1.20;;
22652;SDS011;11493;43.344;26.226;2022-07-11T07:54:38;2.58;;;1.00;;
22652;SDS011;11493;43.344;26.226;2022-07-11T07:57:06;1.35;;;1.10;;
22652;SDS011;11493;43.344;26.226;2022-07-11T07:59:33;2.05;;;1.13;;
22652;SDS011;11493;43.344;26.226;2022-07-11T08:02:00;1.10;;;0.90;;
22652;SDS011;11493;43.344;26.226;2022-07-11T08:04:27;2.50;;;1.10;;
22652;SDS011;11493;43.344;26.226;2022-07-11T08:06:56;1.63;;;1.13;;
22652;SDS011;11493;43.344;26.226;2022-07-11T08:09:26;4.07;;;1.05;;
22652;SDS011;11493;43.344;26.226;2022-07-11T08:11:53;1.88;;;1.00;;
22652;SDS011;11493;43.344;26.226;2022-07-11T08:14:21;2.47;;;1.08;;
22652;SDS011;11493;43.344;26.226;2022-07-11T08:16:49;1.08;;;0.80;;
22652;SDS011;11493;43.344;26.226;2022-07-11T08:19:16;1.75;;;0.93;;
22652;SDS011;11493;43.344;26.226;2022-07-11T08:21:44;0.90;;;0.90;;
22652;SDS011;11493;43.344;26.226;2022-07-11T08:24:11;1.80;;;1.10;;
22652;SDS011;11493;43.344;26.226;2022-07-11T08:26:38;1.70;;;1.30;;
22652;SDS011;11493;43.344;26.226;2022-07-11T08:29:07;0.95;;;0.90;;
22652;SDS011;11493;43.344;26.226;2022-07-11T08:31:34;1.50;;;1.10;;
22652;SDS011;11493;43.344;26.226;2022-07-11T08:34:03;1.10;;;1.00;;
22652;SDS011;11493;43.344;26.226;2022-07-11T08:36:30;3.33;;;1.20;;
22652;SDS011;11493;43.344;26.226;2022-07-11T08:39:02;2.05;;;1.00;;
22652;SDS011;11493;43.344;26.226;2022-07-11T08:41:30;4.22;;;1.10;;
22652;SDS011;11493;43.344;26.226;2022-07-11T08:43:58;5.88;;;0.82;;
22652;SDS011;11493;43.344;26.226;2022-07-11T08:46:25;1.42;;;0.90;;
22652;SDS011;11493;43.344;26.226;2022-07-11T08:48:54;0.90;;;0.90;;
22652;SDS011;11493;43.344;26.226;2022-07-11T08:51:23;1.63;;;1.02;;
22652;SDS011;11493;43.344;26.226;2022-07-11T08:53:52;1.98;;;0.90;;
22652;SDS011;11493;43.344;26.226;2022-07-11T08:56:19;3.65;;;1.17;;
22652;SDS011;11493;43.344;26.226;2022-07-11T08:58:49;2.25;;;0.70;;
22652;SDS011;11493;43.344;26.226;2022-07-11T09:01:26;1.58;;;1.00;;
22652;SDS011;11493;43.344;26.226;2022-07-11T09:03:57;4.45;;;1.00;;
22652;SDS011;11493;43.344;26.226;2022-07-11T09:06:25;1.02;;;0.88;;
22652;SDS011;11493;43.344;26.226;2022-07-11T09:08:57;1.73;;;0.88;;
22652;SDS011;11493;43.344;26.226;2022-07-11T09:11:26;0.80;;;0.80;;
22652;SDS011;11493;43.344;26.226;2022-07-11T09:13:54;4.05;;;0.90;;
22652;SDS011;11493;43.344;26.226;2022-07-11T09:16:21;6.93;;;0.93;;
22652;SDS011;11493;43.344;26.226;2022-07-11T09:18:57;1.45;;;0.82;;
22652;SDS011;11493;43.344;26.226;2022-07-11T09:21:26;0.95;;;0.95;;
22652;SDS011;11493;43.344;26.226;2022-07-11T09:24:11;1.15;;;0.88;;
22652;SDS011;11493;43.344;26.226;2022-07-11T09:26:57;3.05;;;0.80;;
22652;SDS011;11493;43.344;26.226;2022-07-11T09:29:24;4.05;;;0.70;;
22652;SDS011;11493;43.344;26.226;2022-07-11T09:31:52;0.90;;;0.60;;
22652;SDS011;11493;43.344;26.226;2022-07-11T09:34:21;1.25;;;0.70;;
22652;SDS011;11493;43.344;26.226;2022-07-11T09:36:56;2.45;;;0.75;;
22652;SDS011;11493;43.344;26.226;2022-07-11T09:39:25;1.00;;;0.90;;
22652;SDS011;11493;43.344;26.226;2022-07-11T09:41:56;2.92;;;0.50;;
22652;SDS011;11493;43.344;26.226;2022-07-11T09:44:27;2.28;;;0.73;;
22652;SDS011;11493;43.344;26.226;2022-07-11T09:47:00;0.90;;;0.63;;
22652;SDS011;11493;43.344;26.226;2022-07-11T09:49:36;1.67;;;0.65;;
22652;SDS011;11493;43.344;26.226;2022-07-11T09:52:15;2.78;;;0.77;;
22652;SDS011;11493;43.344;26.226;2022-07-11T09:54:58;2.47;;;0.60;;
22652;SDS011;11493;43.344;26.226;2022-07-11T09:57:36;0.95;;;0.80;;
22652;SDS011;11493;43.344;26.226;2022-07-11T10:00:09;3.58;;;0.80;;
22652;SDS011;11493;43.344;26.226;2022-07-11T10:02:38;5.28;;;0.63;;
22652;SDS011;11493;43.344;26.226;2022-07-11T10:05:06;1.10;;;0.65;;
22652;SDS011;11493;43.344;26.226;2022-07-11T10:07:34;5.05;;;0.98;;
22652;SDS011;11493;43.344;26.226;2022-07-11T10:10:03;6.65;;;0.80;;
22652;SDS011;11493;43.344;26.226;2022-07-11T10:12:33;3.00;;;0.82;;
22652;SDS011;11493;43.344;26.226;2022-07-11T10:15:04;3.25;;;0.60;;
22652;SDS011;11493;43.344;26.226;2022-07-11T10:23:06;2.35;;;0.77;;
22652;SDS011;11493;43.344;26.226;2022-07-11T10:28:27;5.30;;;0.80;;
22652;SDS011;11493;43.344;26.226;2022-07-11T10:31:19;6.28;;;0.98;;
22652;SDS011;11493;43.344;26.226;2022-07-11T10:34:09;2.25;;;0.50;;
22652;SDS011;11493;43.344;26.226;2022-07-11T10:36:51;2.28;;;0.47;;
22652;SDS011;11493;43.344;26.226;2022-07-11T10:41:49;5.80;;;0.50;;
22652;SDS011;11493;43.344;26.226;2022-07-11T10:44:16;1.17;;;0.50;;
22652;SDS011;11493;43.344;26.226;2022-07-11T10:46:44;1.50;;;0.40;;
22652;SDS011;11493;43.344;26.226;2022-07-11T11:00:13;2.22;;;0.52;;
22652;SDS011;11493;43.344;26.226;2022-07-11T11:03:19;7.50;;;0.68;;
22652;SDS011;11493;43.344;26.226;2022-07-11T11:11:01;3.33;;;0.40;;
22652;SDS011;11493;43.344;26.226;2022-07-11T11:13:29;4.32;;;0.95;;
22652;SDS011;11493;43.344;26.226;2022-07-11T11:16:00;4.68;;;0.40;;
22652;SDS011;11493;43.344;26.226;2022-07-11T11:18:29;1.77;;;0.35;;
22652;SDS011;11493;43.344;26.226;2022-07-11T11:23:40;1.67;;;0.30;;
22652;SDS011;11493;43.344;26.226;2022-07-11T11:26:17;2.97;;;0.30;;
22652;SDS011;11493;43.344;26.226;2022-07-11T11:29:29;1.40;;;0.43;;
22652;SDS011;11493;43.344;26.226;2022-07-11T11:31:41;2.47;;;0.32;;
22652;SDS011;11493;43.344;26.226;2022-07-11T11:34:16;3.25;;;0.38;;
22652;SDS011;11493;43.344;26.226;2022-07-11T11:36:44;2.25;;;0.40;;
22652;SDS011;11493;43.344;26.226;2022-07-11T11:39:23;6.03;;;0.45;;
22652;SDS011;11493;43.344;26.226;2022-07-11T11:41:53;0.47;;;0.30;;
22652;SDS011;11493;43.344;26.226;2022-07-11T11:44:22;1.35;;;0.30;;
22652;SDS011;11493;43.344;26.226;2022-07-11T11:46:50;4.20;;;0.50;;
22652;SDS011;11493;43.344;26.226;2022-07-11T11:49:18;1.17;;;0.30;;
22652;SDS011;11493;43.344;26.226;2022-07-11T11:51:46;1.45;;;0.30;;
22652;SDS011;11493;43.344;26.226;2022-07-11T11:54:24;3.58;;;0.30;;
22652;SDS011;11493;43.344;26.226;2022-07-11T11:56:52;1.17;;;0.30;;
22652;SDS011;11493;43.344;26.226;2022-07-11T11:59:27;9.15;;;0.40;;
22652;SDS011;11493;43.344;26.226;2022-07-11T12:01:58;1.17;;;0.40;;
22652;SDS011;11493;43.344;26.226;2022-07-11T12:04:29;0.60;;;0.30;;
22652;SDS011;11493;43.344;26.226;2022-07-11T12:06:59;0.50;;;0.30;;
22652;SDS011;11493;43.344;26.226;2022-07-11T12:09:28;0.47;;;0.32;;
22652;SDS011;11493;43.344;26.226;2022-07-11T12:12:17;1.00;;;0.38;;
22652;SDS011;11493;43.344;26.226;2022-07-11T12:15:05;2.95;;;0.20;;
22652;SDS011;11493;43.344;26.226;2022-07-11T12:17:34;3.35;;;0.40;;
22652;SDS011;11493;43.344;26.226;2022-07-11T12:20:02;1.23;;;0.20;;
22652;SDS011;11493;43.344;26.226;2022-07-11T12:22:39;5.93;;;0.40;;
22652;SDS011;11493;43.344;26.226;2022-07-11T12:25:09;0.30;;;0.30;;
22652;SDS011;11493;43.344;26.226;2022-07-11T12:27:38;3.10;;;0.28;;
22652;SDS011;11493;43.344;26.226;2022-07-11T12:30:05;2.45;;;0.55;;
22652;SDS011;11493;43.344;26.226;2022-07-11T12:32:33;2.10;;;0.30;;
22652;SDS011;11493;43.344;26.226;2022-07-11T12:35:00;2.92;;;0.43;;
22652;SDS011;11493;43.344;26.226;2022-07-11T12:37:39;0.95;;;0.40;;
22652;SDS011;11493;43.344;26.226;2022-07-11T12:40:09;0.82;;;0.30;;
22652;SDS011;11493;43.344;26.226;2022-07-11T12:42:42;3.33;;;0.45;;
22652;SDS011;11493;43.344;26.226;2022-07-11T12:45:13;2.83;;;0.40;;
22652;SDS011;11493;43.344;26.226;2022-07-11T12:47:43;0.55;;;0.30;;
22652;SDS011;11493;43.344;26.226;2022-07-11T12:50:23;5.90;;;0.30;;
22652;SDS011;11493;43.344;26.226;2022-07-11T12:52:54;3.38;;;0.38;;
22652;SDS011;11493;43.344;26.226;2022-07-11T12:55:28;5.38;;;0.30;;
22652;SDS011;11493;43.344;26.226;2022-07-11T12:58:03;0.77;;;0.38;;
22652;SDS011;11493;43.344;26.226;2022-07-11T13:00:35;9.82;;;0.50;;
22652;SDS011;11493;43.344;26.226;2022-07-11T13:03:05;6.22;;;0.70;;
22652;SDS011;11493;43.344;26.226;2022-07-11T13:05:53;1.63;;;0.25;;
22652;SDS011;11493;43.344;26.226;2022-07-11T13:08:26;3.08;;;0.40;;
22652;SDS011;11493;43.344;26.226;2022-07-11T13:13:43;6.68;;;0.38;;
22652;SDS011;11493;43.344;26.226;2022-07-11T13:16:14;0.52;;;0.30;;
22652;SDS011;11493;43.344;26.226;2022-07-11T13:18:43;1.92;;;0.45;;
22652;SDS011;11493;43.344;26.226;2022-07-11T13:21:13;3.10;;;0.38;;
22652;SDS011;11493;43.344;26.226;2022-07-11T13:23:41;5.22;;;0.32;;
22652;SDS011;11493;43.344;26.226;2022-07-11T13:26:09;1.23;;;0.50;;
22652;SDS011;11493;43.344;26.226;2022-07-11T13:28:37;2.22;;;0.30;;
22652;SDS011;11493;43.344;26.226;2022-07-11T13:31:06;3.65;;;0.60;;
22652;SDS011;11493;43.344;26.226;2022-07-11T13:33:40;0.70;;;0.30;;
22652;SDS011;11493;43.344;26.226;2022-07-11T13:36:08;2.42;;;0.45;;
22652;SDS011;11493;43.344;26.226;2022-07-11T13:38:36;1.50;;;0.40;;
22652;SDS011;11493;43.344;26.226;2022-07-11T13:41:04;3.78;;;0.30;;
22652;SDS011;11493;43.344;26.226;2022-07-11T13:43:37;4.50;;;0.75;;
22652;SDS011;11493;43.344;26.226;2022-07-11T13:46:04;4.72;;;0.40;;
22652;SDS011;11493;43.344;26.226;2022-07-11T13:48:32;2.20;;;0.50;;
22652;SDS011;11493;43.344;26.226;2022-07-11T13:50:59;2.58;;;0.50;;
22652;SDS011;11493;43.344;26.226;2022-07-11T13:53:26;0.90;;;0.45;;
22652;SDS011;11493;43.344;26.226;2022-07-11T13:55:54;2.50;;;0.40;;
22652;SDS011;11493;43.344;26.226;2022-07-11T13:58:21;7.53;;;0.45;;
22652;SDS011;11493;43.344;26.226;2022-07-11T14:00:58;0.40;;;0.30;;
22652;SDS011;11493;43.344;26.226;2022-07-11T14:03:26;1.05;;;0.50;;
22652;SDS011;11493;43.344;26.226;2022-07-11T14:05:54;1.20;;;0.40;;
22652;SDS011;11493;43.344;26.226;2022-07-11T14:08:22;3.38;;;0.38;;
22652;SDS011;11493;43.344;26.226;2022-07-11T14:10:50;1.25;;;0.30;;
22652;SDS011;11493;43.344;26.226;2022-07-11T14:13:18;1.38;;;0.40;;
22652;SDS011;11493;43.344;26.226;2022-07-11T14:15:46;0.95;;;0.43;;
22652;SDS011;11493;43.344;26.226;2022-07-11T14:18:14;0.80;;;0.40;;
22652;SDS011;11493;43.344;26.226;2022-07-11T14:20:41;1.23;;;0.35;;
22652;SDS011;11493;43.344;26.226;2022-07-11T14:23:09;1.95;;;0.35;;
22652;SDS011;11493;43.344;26.226;2022-07-11T14:25:36;3.25;;;0.55;;
22652;SDS011;11493;43.344;26.226;2022-07-11T14:28:04;0.65;;;0.40;;
22652;SDS011;11493;43.344;26.226;2022-07-11T14:30:34;0.40;;;0.40;;
22652;SDS011;11493;43.344;26.226;2022-07-11T14:33:01;5.28;;;0.50;;
22652;SDS011;11493;43.344;26.226;2022-07-11T14:35:28;3.88;;;0.30;;
22652;SDS011;11493;43.344;26.226;2022-07-11T14:37:55;1.52;;;0.55;;
22652;SDS011;11493;43.344;26.226;2022-07-11T14:40:23;2.33;;;0.30;;
22652;SDS011;11493;43.344;26.226;2022-07-11T14:42:55;0.93;;;0.40;;
22652;SDS011;11493;43.344;26.226;2022-07-11T14:45:22;1.20;;;0.52;;
22652;SDS011;11493;43.344;26.226;2022-07-11T14:47:50;3.80;;;0.73;;
22652;SDS011;11493;43.344;26.226;2022-07-11T14:50:19;2.20;;;0.40;;
22652;SDS011;11493;43.344;26.226;2022-07-11T14:52:46;0.40;;;0.30;;
22652;SDS011;11493;43.344;26.226;2022-07-11T14:55:13;2.70;;;0.40;;
22652;SDS011;11493;43.344;26.226;2022-07-11T14:57:41;3.10;;;0.45;;
22652;SDS011;11493;43.344;26.226;2022-07-11T15:00:14;1.10;;;0.60;;
22652;SDS011;11493;43.344;26.226;2022-07-11T15:02:42;0.70;;;0.40;;
22652;SDS011;11493;43.344;26.226;2022-07-11T15:05:32;1.58;;;0.30;;
22652;SDS011;11493;43.344;26.226;2022-07-11T15:07:59;5.43;;;0.60;;
22652;SDS011;11493;43.344;26.226;2022-07-11T15:10:45;4.05;;;0.20;;
22652;SDS011;11493;43.344;26.226;2022-07-11T15:13:31;2.80;;;0.43;;
22652;SDS011;11493;43.344;26.226;2022-07-11T15:15:59;5.03;;;0.40;;
22652;SDS011;11493;43.344;26.226;2022-07-11T15:18:26;1.42;;;0.35;;
22652;SDS011;11493;43.344;26.226;2022-07-11T15:20:53;0.95;;;0.55;;
22652;SDS011;11493;43.344;26.226;2022-07-11T15:23:21;0.50;;;0.40;;